createdAt,value
2018-01-04T00:01:12.727Z,35.30
2018-01-04T00:03:41.869Z,37.40
2018-01-04T00:06:10.195Z,32.43
2018-01-04T00:08:38.513Z,35.07
2018-01-04T00:11:06.902Z,35.07
2018-01-04T00:13:35.219Z,33.57
2018-01-04T00:16:03.526Z,30.17
2018-01-04T00:18:31.877Z,32.87
2018-01-04T00:21:00.263Z,30.23
2018-01-04T00:23:28.599Z,36.57
2018-01-04T00:25:56.899Z,30.90
2018-01-04T00:28:25.210Z,31.23
2018-01-04T00:30:53.506Z,38.17
2018-01-04T00:33:21.834Z,31.57
2018-01-04T00:35:50.135Z,32.50
2018-01-04T00:38:18.422Z,32.60
2018-01-04T00:40:46.785Z,29.97
2018-01-04T00:43:15.138Z,37.53
2018-01-04T00:45:44.283Z,40.00
2018-01-04T00:48:12.604Z,34.33
2018-01-04T00:50:40.900Z,31.07
2018-01-04T00:53:10.011Z,26.70
2018-01-04T00:55:39.081Z,36.27
2018-01-04T00:58:07.389Z,33.10
2018-01-04T01:00:35.731Z,33.53
2018-01-04T01:03:04.066Z,26.67
2018-01-04T01:05:32.456Z,37.40
2018-01-04T01:08:00.821Z,34.83
2018-01-04T01:10:29.893Z,32.73
2018-01-04T01:12:58.197Z,25.87
2018-01-04T01:15:27.256Z,32.80
2018-01-04T01:17:55.602Z,35.73
2018-01-04T01:20:23.923Z,36.87
2018-01-04T01:22:52.221Z,35.83
2018-01-04T01:25:20.548Z,33.50
2018-01-04T01:27:48.854Z,32.57
2018-01-04T01:30:17.172Z,30.17
2018-01-04T01:32:45.490Z,32.50
2018-01-04T01:35:13.793Z,36.13
2018-01-04T01:37:42.092Z,33.67
2018-01-04T01:40:10.406Z,36.53
2018-01-04T01:42:39.482Z,37.53
2018-01-04T01:45:07.840Z,34.60
2018-01-04T01:47:36.192Z,39.30
2018-01-04T01:50:04.628Z,31.27
2018-01-04T01:52:33.012Z,45.47
2018-01-04T01:55:01.318Z,29.97
2018-01-04T01:57:30.402Z,39.37
2018-01-04T01:59:58.696Z,32.77
2018-01-04T02:02:27.117Z,34.07
2018-01-04T02:04:55.405Z,35.03
2018-01-04T02:07:23.718Z,23.60
2018-01-04T02:09:52.031Z,29.63
2018-01-04T02:12:21.157Z,31.17
2018-01-04T02:14:49.476Z,31.87
2018-01-04T02:17:17.832Z,31.80
2018-01-04T02:20:03.885Z,36.47
2018-01-04T02:22:48.638Z,38.93
2018-01-04T02:25:35.484Z,31.90
2018-01-04T02:28:21.764Z,32.17
2018-01-04T02:31:07.780Z,37.07
2018-01-04T02:36:57.591Z,38.60
2018-01-04T02:39:44.392Z,40.47
2018-01-04T02:45:48.024Z,36.67
2018-01-04T02:48:16.322Z,37.63
2018-01-04T02:50:44.641Z,39.87
2018-01-04T02:53:13.856Z,38.30
2018-01-04T02:55:42.919Z,39.47
2018-01-04T02:58:11.254Z,29.23
2018-01-04T03:00:39.586Z,42.43
2018-01-04T03:03:07.944Z,36.53
2018-01-04T03:05:36.252Z,36.70
2018-01-04T03:08:04.551Z,41.00
2018-01-04T03:10:32.885Z,35.50
2018-01-04T03:13:01.224Z,29.23
2018-01-04T03:15:30.298Z,38.70
2018-01-04T03:17:58.685Z,40.17
2018-01-04T03:20:26.976Z,43.53
2018-01-04T03:23:00.764Z,57.93
2018-01-04T03:25:34.508Z,38.77
2018-01-04T03:28:09.049Z,38.37
2018-01-04T03:30:42.956Z,51.83
2018-01-04T03:33:16.802Z,36.43
2018-01-04T03:35:50.626Z,37.20
2018-01-04T03:38:24.600Z,36.63
2018-01-04T03:40:58.436Z,34.93
2018-01-04T03:43:32.243Z,36.20
2018-01-04T03:46:06.028Z,40.07
2018-01-04T03:48:34.339Z,32.40
2018-01-04T03:51:08.172Z,40.23
2018-01-04T03:53:42.748Z,33.70
2018-01-04T03:56:17.410Z,45.80
2018-01-04T03:58:51.104Z,31.00
2018-01-04T04:01:25.059Z,36.07
2018-01-04T04:03:53.412Z,31.40
2018-01-04T04:06:27.261Z,45.27
2018-01-04T04:08:55.688Z,36.30
2018-01-04T04:11:23.991Z,33.93
2018-01-04T04:13:53.074Z,36.13
2018-01-04T04:16:21.442Z,37.33
2018-01-04T04:18:49.760Z,35.37
2018-01-04T04:21:18.881Z,37.33
2018-01-04T04:23:47.199Z,33.67
2018-01-04T04:26:15.508Z,39.50
2018-01-04T04:28:43.835Z,35.40
2018-01-04T04:31:12.158Z,35.23
2018-01-04T04:33:40.462Z,37.23
2018-01-04T04:36:09.597Z,37.67
2018-01-04T04:38:37.913Z,35.27
2018-01-04T04:41:06.214Z,36.47
2018-01-04T04:43:35.316Z,29.80
2018-01-04T04:46:03.616Z,38.77
2018-01-04T04:48:32.729Z,47.13
2018-01-04T04:51:01.057Z,44.07
2018-01-04T04:53:29.377Z,46.97
2018-01-04T04:55:58.489Z,29.20
2018-01-04T04:58:26.799Z,33.60
2018-01-04T05:00:55.131Z,32.03
2018-01-04T05:03:24.213Z,33.87
2018-01-04T05:05:52.561Z,34.53
2018-01-04T05:08:21.645Z,44.70
2018-01-04T05:10:49.947Z,35.57
2018-01-04T05:13:18.306Z,38.03
2018-01-04T05:15:46.626Z,35.17
2018-01-04T05:18:15.547Z,34.93
2018-01-04T05:20:43.848Z,21.47
2018-01-04T05:23:12.141Z,30.83
2018-01-04T05:25:40.464Z,30.20
2018-01-04T05:28:08.748Z,28.60
2018-01-04T05:30:37.080Z,26.53
2018-01-04T05:33:05.415Z,31.33
2018-01-04T05:35:33.730Z,33.77
2018-01-04T05:38:02.803Z,37.27
2018-01-04T05:40:31.103Z,32.23
2018-01-04T05:43:00.181Z,30.73
2018-01-04T05:45:28.967Z,37.77
2018-01-04T05:47:57.289Z,31.83
2018-01-04T05:50:26.388Z,28.83
2018-01-04T05:52:55.488Z,39.57
2018-01-04T05:55:24.553Z,37.43
2018-01-04T05:57:52.865Z,31.80
2018-01-04T06:00:21.959Z,38.10
2018-01-04T06:02:51.032Z,33.03
2018-01-04T06:05:19.335Z,30.93
2018-01-04T06:07:48.409Z,38.23
2018-01-04T06:10:16.733Z,34.57
2018-01-04T06:12:45.068Z,34.50
2018-01-04T06:15:13.367Z,34.97
2018-01-04T06:17:41.677Z,35.70
2018-01-04T06:20:09.995Z,35.50
2018-01-04T06:22:38.309Z,39.47
2018-01-04T06:25:06.701Z,43.83
2018-01-04T06:27:35.013Z,44.50
2018-01-04T06:30:03.323Z,51.63
2018-01-04T06:32:31.625Z,43.03
2018-01-04T06:34:59.959Z,42.23
2018-01-04T06:37:29.099Z,34.37
2018-01-04T06:39:57.412Z,41.97
2018-01-04T06:42:25.723Z,50.07
2018-01-04T06:44:54.095Z,41.70
2018-01-04T06:47:23.191Z,43.13
2018-01-04T06:49:52.267Z,31.00
2018-01-04T06:52:20.567Z,34.27
2018-01-04T06:54:49.697Z,34.10
2018-01-04T06:57:18.024Z,35.10
2018-01-04T06:59:46.330Z,46.97
2018-01-04T07:02:15.399Z,33.37
2018-01-04T07:04:43.737Z,39.10
2018-01-04T07:07:12.057Z,41.00
2018-01-04T07:09:41.226Z,37.37
2018-01-04T07:12:09.543Z,32.97
2018-01-04T07:14:37.841Z,33.03
2018-01-04T07:17:07.021Z,35.47
2018-01-04T07:19:35.383Z,26.20
2018-01-04T07:22:03.703Z,30.17
2018-01-04T07:24:32.032Z,40.83
2018-01-04T07:27:00.423Z,34.30
2018-01-04T07:29:28.733Z,33.60
2018-01-04T07:31:57.087Z,33.10
2018-01-04T07:34:25.406Z,36.23
2018-01-04T07:36:53.768Z,33.10
2018-01-04T07:39:22.876Z,38.53
2018-01-04T07:41:51.195Z,32.07
2018-01-04T07:44:20.271Z,42.07
2018-01-04T07:46:48.593Z,40.70
2018-01-04T07:49:16.921Z,38.73
2018-01-04T07:51:45.292Z,39.50
2018-01-04T07:54:13.620Z,42.23
2018-01-04T07:56:42.003Z,34.93
2018-01-04T07:59:11.103Z,45.07
2018-01-04T08:01:40.183Z,46.83
2018-01-04T08:04:08.547Z,35.33
2018-01-04T08:06:36.940Z,31.10
2018-01-04T08:09:05.260Z,37.87
2018-01-04T08:11:34.341Z,25.20
2018-01-04T08:14:02.710Z,31.67
2018-01-04T08:16:31.018Z,31.07
2018-01-04T08:19:00.119Z,32.60
2018-01-04T08:21:29.190Z,30.97
2018-01-04T08:23:57.484Z,31.57
2018-01-04T08:26:26.579Z,31.23
2018-01-04T08:28:55.141Z,31.90
2018-01-04T08:31:23.533Z,33.70
2018-01-04T08:33:51.862Z,34.47
2018-01-04T08:36:20.216Z,29.13
2018-01-04T08:38:48.542Z,36.10
2018-01-04T08:41:16.955Z,34.70
2018-01-04T08:43:45.267Z,29.10
2018-01-04T08:46:13.569Z,36.90
2018-01-04T08:48:42.677Z,33.60
2018-01-04T08:51:11.039Z,37.07
2018-01-04T08:53:40.121Z,29.23
2018-01-04T08:56:08.443Z,27.57
2018-01-04T08:58:36.809Z,32.33
2018-01-04T09:01:05.912Z,27.33
2018-01-04T09:03:35.082Z,27.60
2018-01-04T09:06:03.539Z,41.40
2018-01-04T09:08:31.845Z,31.53
2018-01-04T09:11:00.193Z,33.43
2018-01-04T09:13:28.515Z,32.90
2018-01-04T09:15:56.827Z,34.87
2018-01-04T09:18:25.892Z,35.77
2018-01-04T09:20:54.217Z,27.83
2018-01-04T09:23:22.553Z,33.70
2018-01-04T09:25:50.907Z,26.57
2018-01-04T09:28:19.192Z,29.83
2018-01-04T09:30:47.505Z,32.00
2018-01-04T09:33:15.803Z,31.83
2018-01-04T09:35:44.881Z,34.10
2018-01-04T09:38:13.189Z,35.27
2018-01-04T09:40:42.258Z,28.07
2018-01-04T09:43:10.613Z,39.97
2018-01-04T09:45:38.947Z,31.60
2018-01-04T09:48:07.265Z,33.90
2018-01-04T09:50:35.575Z,35.87
2018-01-04T09:53:03.881Z,36.40
2018-01-04T09:55:32.187Z,32.40
2018-01-04T09:58:01.420Z,37.97
2018-01-04T10:00:29.750Z,39.67
2018-01-04T10:02:58.847Z,30.30
2018-01-04T10:05:27.191Z,34.73
2018-01-04T10:07:55.495Z,27.73
2018-01-04T10:10:23.836Z,37.40
2018-01-04T10:12:52.156Z,36.43
2018-01-04T10:15:20.482Z,25.53
2018-01-04T10:17:49.555Z,28.00
2018-01-04T10:20:17.913Z,33.17
2018-01-04T10:22:46.281Z,33.50
2018-01-04T10:25:14.571Z,34.27
2018-01-04T10:27:42.888Z,31.57
2018-01-04T10:30:11.213Z,29.73
2018-01-04T10:32:39.518Z,23.20
2018-01-04T10:35:07.820Z,24.83
2018-01-04T10:37:36.196Z,24.20
2018-01-04T10:40:04.536Z,36.20
2018-01-04T10:42:32.886Z,25.40
2018-01-04T10:45:01.983Z,25.77
2018-01-04T10:47:31.110Z,29.43
2018-01-04T10:49:59.423Z,32.20
2018-01-04T10:52:27.752Z,28.70
2018-01-04T10:54:56.829Z,34.00
2018-01-04T10:57:25.149Z,28.07
2018-01-04T10:59:53.453Z,25.67
2018-01-04T11:02:21.785Z,35.83
2018-01-04T11:04:50.108Z,27.70
2018-01-04T11:07:18.430Z,26.33
2018-01-04T11:09:46.763Z,24.83
2018-01-04T11:12:15.135Z,28.03
2018-01-04T11:14:44.194Z,26.83
2018-01-04T11:17:12.566Z,29.37
2018-01-04T11:19:41.546Z,28.33
2018-01-04T11:22:09.849Z,31.73
2018-01-04T11:24:38.174Z,29.13
2018-01-04T11:27:07.268Z,20.73
2018-01-04T11:29:36.335Z,23.83
2018-01-04T11:32:04.692Z,20.37
2018-01-04T11:34:33.013Z,19.80
2018-01-04T11:37:01.332Z,22.50
2018-01-04T11:39:29.625Z,20.80
2018-01-04T11:41:57.925Z,19.70
2018-01-04T11:44:26.517Z,17.60
2018-01-04T11:46:54.847Z,15.43
2018-01-04T11:49:24.021Z,20.87
2018-01-04T11:51:52.471Z,19.17
2018-01-04T11:54:20.813Z,21.03
2018-01-04T11:56:49.906Z,22.27
2018-01-04T11:59:18.207Z,18.07
2018-01-04T12:01:46.529Z,18.43
2018-01-04T12:04:14.848Z,21.37
2018-01-04T12:06:44.055Z,16.03
2018-01-04T12:09:13.185Z,21.50
2018-01-04T12:11:41.492Z,19.20
2018-01-04T12:14:09.822Z,18.13
2018-01-04T12:16:38.919Z,16.83
2018-01-04T12:19:07.992Z,15.20
2018-01-04T12:21:36.302Z,17.70
2018-01-04T12:24:05.378Z,17.10
2018-01-04T12:26:33.734Z,12.57
2018-01-04T12:29:02.086Z,13.20
2018-01-04T12:31:30.420Z,12.80
2018-01-04T12:33:58.736Z,11.60
2018-01-04T12:36:27.812Z,13.63
2018-01-04T12:38:56.127Z,15.80
2018-01-04T12:41:24.470Z,13.63
2018-01-04T12:43:52.792Z,9.40
2018-01-04T12:46:21.107Z,11.00
2018-01-04T12:48:49.436Z,5.80
2018-01-04T12:51:18.536Z,9.87
2018-01-04T12:53:47.621Z,10.00
2018-01-04T12:56:15.998Z,9.47
2018-01-04T12:58:45.094Z,8.20
2018-01-04T13:01:13.448Z,9.63
2018-01-04T13:03:41.769Z,9.53
2018-01-04T13:06:10.102Z,14.60
2018-01-04T13:08:38.444Z,10.97
2018-01-04T13:11:07.554Z,13.23
2018-01-04T13:13:36.677Z,10.47
2018-01-04T13:16:05.052Z,11.10
2018-01-04T13:18:33.351Z,13.67
2018-01-04T13:21:01.678Z,17.97
2018-01-04T13:23:30.786Z,12.87
2018-01-04T13:25:59.881Z,15.80
2018-01-04T13:28:28.201Z,11.60
2018-01-04T13:30:56.653Z,13.73
2018-01-04T13:33:25.739Z,16.97
2018-01-04T13:35:54.057Z,17.67
2018-01-04T13:38:22.367Z,17.30
2018-01-04T13:40:50.737Z,18.60
2018-01-04T13:43:19.077Z,16.90
2018-01-04T13:45:48.163Z,17.10
2018-01-04T13:48:16.525Z,17.70
2018-01-04T13:50:44.853Z,13.77
2018-01-04T13:53:13.954Z,11.90
2018-01-04T13:55:42.271Z,15.80
2018-01-04T13:58:10.566Z,17.40
2018-01-04T14:00:38.882Z,11.90
2018-01-04T14:03:07.967Z,11.13
2018-01-04T14:05:36.269Z,12.33
2018-01-04T14:08:05.409Z,16.90
2018-01-04T14:10:33.882Z,16.50
2018-01-04T14:13:02.249Z,15.50
2018-01-04T14:15:31.333Z,14.83
2018-01-04T14:17:59.646Z,14.53
2018-01-04T14:20:27.984Z,14.53
2018-01-04T14:22:56.326Z,16.20
2018-01-04T14:25:24.641Z,14.80
2018-01-04T14:27:52.943Z,14.70
2018-01-04T14:30:21.232Z,16.13
2018-01-04T14:32:50.318Z,18.57
2018-01-04T14:35:18.619Z,15.67
2018-01-04T14:37:48.639Z,17.67
2018-01-04T14:40:16.969Z,18.63
2018-01-04T14:42:46.098Z,17.13
2018-01-04T14:45:15.182Z,19.13
2018-01-04T14:47:43.484Z,18.07
2018-01-04T14:50:12.552Z,18.13
2018-01-04T14:52:40.932Z,20.33
2018-01-04T14:55:09.231Z,20.50
2018-01-04T14:57:37.537Z,20.20
2018-01-04T15:00:06.616Z,19.63
2018-01-04T15:02:34.988Z,17.37
2018-01-04T15:05:03.304Z,19.97
2018-01-04T15:07:32.431Z,23.40
2018-01-04T15:10:00.803Z,21.00
2018-01-04T15:12:29.107Z,21.40
2018-01-04T15:14:57.429Z,18.13
2018-01-04T15:17:25.745Z,19.53
2018-01-04T15:19:54.057Z,18.80
2018-01-04T15:22:22.367Z,26.13
2018-01-04T15:24:50.718Z,19.63
2018-01-04T15:27:19.067Z,14.70
2018-01-04T15:29:48.143Z,13.60
2018-01-04T15:32:16.516Z,17.73
2018-01-04T15:34:44.846Z,18.40
2018-01-04T15:37:13.186Z,22.97
2018-01-04T15:39:41.536Z,25.13
2018-01-04T15:42:09.881Z,20.67
2018-01-04T15:44:39.001Z,24.10
2018-01-04T15:47:07.347Z,30.30
2018-01-04T15:49:35.687Z,23.30
2018-01-04T15:52:04.040Z,26.23
2018-01-04T15:54:32.348Z,40.50
2018-01-04T15:57:00.678Z,29.20
2018-01-04T15:59:29.767Z,35.17
2018-01-04T16:01:58.149Z,30.40
2018-01-04T16:04:26.504Z,31.27
2018-01-04T16:06:54.847Z,34.07
2018-01-04T16:09:23.236Z,32.40
2018-01-04T16:11:51.575Z,35.80
2018-01-04T16:14:19.900Z,38.30
2018-01-04T16:16:48.249Z,38.43
2018-01-04T16:19:16.565Z,45.97
2018-01-04T16:21:44.886Z,46.83
2018-01-04T16:24:13.481Z,42.30
2018-01-04T16:26:41.810Z,45.77
2018-01-04T16:29:10.247Z,56.17
2018-01-04T16:31:38.565Z,43.87
2018-01-04T16:34:07.699Z,51.07
2018-01-04T16:36:36.026Z,51.17
2018-01-04T16:39:04.395Z,56.50
2018-01-04T16:41:32.710Z,46.03
2018-01-04T16:44:01.827Z,64.53
2018-01-04T16:46:30.162Z,100.73
2018-01-04T16:49:00.048Z,111.33
2018-01-04T16:51:28.428Z,113.30
2018-01-04T16:53:56.755Z,119.83
2018-01-04T16:56:25.074Z,72.13
2018-01-04T16:58:53.392Z,83.20
2018-01-04T17:01:21.704Z,54.73
2018-01-04T17:03:50.047Z,138.63
2018-01-04T17:06:18.381Z,60.63
2018-01-04T17:08:46.739Z,69.20
2018-01-04T17:11:15.062Z,74.57
2018-01-04T17:13:43.378Z,91.77
2018-01-04T17:16:11.739Z,72.37
2018-01-04T17:18:40.103Z,68.50
2018-01-04T17:21:08.457Z,64.03
2018-01-04T17:23:37.603Z,58.20
2018-01-04T17:26:06.876Z,60.37
2018-01-04T17:28:35.981Z,68.17
2018-01-04T17:31:05.284Z,52.20
2018-01-04T17:33:33.619Z,49.83
2018-01-04T17:36:02.008Z,56.73
2018-01-04T17:38:30.305Z,39.37
2018-01-04T17:40:58.626Z,35.70
2018-01-04T17:43:27.619Z,41.60
2018-01-04T17:45:55.929Z,46.43
2018-01-04T17:48:24.251Z,42.80
2018-01-04T17:50:52.574Z,49.07
2018-01-04T17:53:20.976Z,45.83
2018-01-04T17:55:49.348Z,49.67
2018-01-04T18:00:52.391Z,47.23
2018-01-04T18:03:20.775Z,55.27
2018-01-04T18:05:49.111Z,38.03
2018-01-04T18:08:17.442Z,35.30
2018-01-04T18:10:46.088Z,39.40
2018-01-04T18:13:14.415Z,44.17
2018-01-04T18:15:42.758Z,34.17
2018-01-04T18:18:11.084Z,35.00
2018-01-04T18:20:40.264Z,26.43
2018-01-04T18:23:08.714Z,28.87
2018-01-04T18:25:37.083Z,27.53
2018-01-04T18:28:06.186Z,30.73
2018-01-04T18:30:35.313Z,21.47
2018-01-04T18:33:03.783Z,23.57
2018-01-04T18:35:32.121Z,23.27
2018-01-04T18:38:00.505Z,21.80
2018-01-04T18:40:28.982Z,18.20
2018-01-04T18:42:57.364Z,30.47
2018-01-04T18:45:26.062Z,25.13
2018-01-04T18:47:54.385Z,26.20
2018-01-04T18:50:22.784Z,21.47
2018-01-04T18:52:51.175Z,21.60
2018-01-04T18:55:19.512Z,19.67
2018-01-04T18:57:48.662Z,14.70
2018-01-04T19:00:17.021Z,20.20
2018-01-04T19:02:45.457Z,22.70
2018-01-04T19:05:13.771Z,19.93
2018-01-04T19:07:42.901Z,20.53
2018-01-04T19:10:11.888Z,14.90
2018-01-04T19:12:40.215Z,17.47
2018-01-04T19:15:08.579Z,16.37
2018-01-04T19:17:36.884Z,19.67
2018-01-04T19:20:06.383Z,21.90
2018-01-04T19:22:35.537Z,14.03
2018-01-04T19:25:04.007Z,16.30
2018-01-04T19:27:32.403Z,17.80
2018-01-04T19:30:00.731Z,24.40
2018-01-04T19:32:29.908Z,11.13
2018-01-04T19:34:58.387Z,13.50
2018-01-04T19:37:26.838Z,15.43
2018-01-04T19:39:55.203Z,13.67
2018-01-04T19:42:24.371Z,13.30
2018-01-04T19:44:52.692Z,14.50
2018-01-04T19:47:21.121Z,15.77
2018-01-04T19:49:49.599Z,13.13
2018-01-04T19:52:17.977Z,12.90
2018-01-04T19:54:46.343Z,10.83
2018-01-04T19:57:14.868Z,18.00
2018-01-04T19:59:43.667Z,17.70
2018-01-04T20:02:12.023Z,15.47
2018-01-04T20:04:40.387Z,14.03
2018-01-04T20:07:09.689Z,17.97
2018-01-04T20:09:38.088Z,9.83
2018-01-04T20:12:06.554Z,10.20
2018-01-04T20:14:35.715Z,14.70
2018-01-04T20:17:04.060Z,10.50
2018-01-04T20:19:32.420Z,11.30
2018-01-04T20:22:01.027Z,10.03
2018-01-04T20:24:29.394Z,10.97
2018-01-04T20:26:58.531Z,13.17
2018-01-04T20:29:26.901Z,14.20
2018-01-04T20:31:55.800Z,11.33
2018-01-04T20:34:24.304Z,19.23
2018-01-04T20:36:52.668Z,15.83
2018-01-04T20:39:20.986Z,15.80
2018-01-04T20:41:49.605Z,11.70
2018-01-04T20:44:17.950Z,8.83
2018-01-04T20:46:46.558Z,8.93
2018-01-04T20:49:15.766Z,8.93
2018-01-04T20:51:45.392Z,9.07
2018-01-04T20:54:14.208Z,9.63
2018-01-04T20:56:42.733Z,12.43
2018-01-04T20:59:11.224Z,13.63
2018-01-04T21:01:40.476Z,11.27
2018-01-04T21:04:09.135Z,17.87
2018-01-04T21:06:38.351Z,11.00
2018-01-04T21:09:06.724Z,9.17
2018-01-04T21:11:35.268Z,8.50
2018-01-04T21:14:03.570Z,12.37
2018-01-04T21:16:31.924Z,14.00
2018-01-04T21:19:00.256Z,12.73
2018-01-04T21:21:28.564Z,14.53
2018-01-04T21:23:57.640Z,8.50
2018-01-04T21:26:26.723Z,9.30
2018-01-04T21:28:55.108Z,14.83
2018-01-04T21:31:23.558Z,12.47
2018-01-04T21:33:52.163Z,13.27
2018-01-04T21:36:20.639Z,11.60
2018-01-04T21:38:49.615Z,12.43
2018-01-04T21:41:17.939Z,17.17
2018-01-04T21:43:46.302Z,7.20
2018-01-04T21:46:14.818Z,12.37
2018-01-04T21:48:43.343Z,15.07
2018-01-04T21:51:11.736Z,8.03
2018-01-04T21:53:40.049Z,7.00
2018-01-04T21:56:08.316Z,5.93
2018-01-04T21:58:36.642Z,11.27
2018-01-04T22:01:04.935Z,13.20
2018-01-04T22:03:33.987Z,7.33
2018-01-04T22:06:02.648Z,8.20
2018-01-04T22:08:30.948Z,10.57
2018-01-04T22:10:59.244Z,12.97
2018-01-04T22:13:27.633Z,9.33
2018-01-04T22:15:56.032Z,12.53
2018-01-04T22:18:25.127Z,11.07
2018-01-04T22:20:53.512Z,12.27
2018-01-04T22:23:22.607Z,12.10
2018-01-04T22:25:50.971Z,11.30
2018-01-04T22:28:19.307Z,8.20
2018-01-04T22:30:47.636Z,10.13
2018-01-04T22:33:15.971Z,10.33
2018-01-04T22:35:45.116Z,7.30
2018-01-04T22:38:13.412Z,12.03
2018-01-04T22:40:41.732Z,13.47
2018-01-04T22:43:10.799Z,6.03
2018-01-04T22:45:39.095Z,12.67
2018-01-04T22:48:07.458Z,10.27
2018-01-04T22:50:35.857Z,9.30
2018-01-04T22:53:04.132Z,12.20
2018-01-04T22:55:33.235Z,12.43
2018-01-04T22:58:02.420Z,16.80
2018-01-04T23:00:30.764Z,14.20
2018-01-04T23:02:59.079Z,8.20
2018-01-04T23:05:27.412Z,14.00
2018-01-04T23:07:56.496Z,11.67
2018-01-04T23:10:25.876Z,17.83
2018-01-04T23:12:54.184Z,9.10
2018-01-04T23:15:23.266Z,22.20
2018-01-04T23:17:51.589Z,6.90
2018-01-04T23:20:19.910Z,11.50
2018-01-04T23:22:48.208Z,9.57
2018-01-04T23:25:18.104Z,10.30
2018-01-04T23:27:46.391Z,9.67
2018-01-04T23:30:14.732Z,6.57
2018-01-04T23:32:43.108Z,11.30
2018-01-04T23:35:12.179Z,11.80
2018-01-04T23:37:40.561Z,7.47
2018-01-04T23:40:10.378Z,10.70
2018-01-04T23:42:38.692Z,15.47
2018-01-04T23:45:07.061Z,12.43
2018-01-04T23:47:36.170Z,14.73
2018-01-04T23:50:05.478Z,11.40
2018-01-04T23:52:34.560Z,12.33
2018-01-04T23:55:03.630Z,13.67
2018-01-04T23:57:31.968Z,19.17
